Time;durP1;ratioP1;P1;durP2;ratioP2;P2;SDS_P1;SDS_P2;PMS_P1;PMS_P2;Temp;Humidity;BMP_temperature;BMP_pressure;BME280_temperature;BME280_humidity;BME280_pressure;Samples;Min_cycle;Max_cycle;Signal;HPM_P1;HPM_P2
2022/11/15 00:01:32;;;;;;;;;;;6.90;99.90;;;;;;5016220;28;20410;-80
2022/11/15 00:03:58;;;;;;;;;;;6.30;99.90;;;;;;4997588;28;19924;-80
2022/11/15 00:06:23;;;;;;;;;;;6.20;99.90;;;;;;5014305;28;19925;-79
2022/11/15 00:08:49;;;;;;;;;;;6.70;99.90;;;;;;5008498;28;19921;-80
2022/11/15 00:11:14;;;;;;;;;;;6.60;99.90;;;;;;5011317;28;19936;-80
2022/11/15 00:13:40;;;;;;;;;;;6.30;99.90;;;;;;4996585;28;19995;-80
2022/11/15 00:16:06;;;;;;;;;;;6.40;99.90;;;;;;4995158;28;19929;-80
2022/11/15 00:18:32;;;;;;;;;;;6.40;99.90;;;;;;4981022;28;19929;-80
2022/11/15 00:21:03;;;;;;;;;;;6.50;99.90;;;;;;5014492;28;19920;-80
2022/11/15 00:23:29;;;;;;;;;;;6.60;99.90;;;;;;5013319;28;19975;-80
2022/11/15 00:25:58;;;;;;;;;;;7.40;99.90;;;;;;4998814;28;19929;-80
2022/11/15 00:28:24;;;;;;;;;;;6.70;99.90;;;;;;5014947;28;20591;-80
2022/11/15 00:30:49;;;;;;;;;;;6.70;99.90;;;;;;4980794;28;19929;-80
2022/11/15 00:33:15;;;;;;;;;;;6.80;99.90;;;;;;5012220;28;19928;-80
2022/11/15 00:35:40;;;;;;;;;;;6.90;99.90;;;;;;4995832;28;19929;-79
2022/11/15 00:38:06;;;;;;;;;;;6.90;99.90;;;;;;5014857;28;19940;-80
2022/11/15 00:40:32;;;;;;;;;;;6.90;99.90;;;;;;5011657;28;19925;-80
2022/11/15 00:42:58;;;;;;;;;;;6.90;99.90;;;;;;5014496;28;19944;-80
2022/11/15 00:45:23;;;;;;;;;;;7.00;99.90;;;;;;4994711;28;19929;-80
2022/11/15 00:47:49;;;;;;;;;;;7.00;99.90;;;;;;5012119;28;19925;-80
2022/11/15 00:50:15;;;;;;;;;;;7.00;99.90;;;;;;5013071;28;19927;-80
2022/11/15 00:52:40;;;;;;;;;;;7.00;99.90;;;;;;4997708;28;20017;-79
2022/11/15 00:55:06;;;;;;;;;;;7.00;99.90;;;;;;4995305;28;19925;-79
2022/11/15 00:57:32;;;;;;;;;;;7.10;99.90;;;;;;4997385;28;19920;-80
2022/11/15 00:59:57;;;;;;;;;;;7.10;99.90;;;;;;4995279;28;19921;-80
2022/11/15 01:02:23;;;;;;;;;;;7.10;99.90;;;;;;4997105;28;19975;-80
2022/11/15 01:04:48;;;;;;;;;;;7.30;99.90;;;;;;5013100;28;20012;-80
2022/11/15 01:07:14;;;;;;;;;;;7.30;99.90;;;;;;4996847;28;19991;-80
2022/11/15 01:09:40;;;;;;;;;;;7.20;99.90;;;;;;4993878;28;19941;-80
2022/11/15 01:12:05;;;;;;;;;;;7.20;99.90;;;;;;4986432;28;20485;-80
2022/11/15 01:14:31;;;;;;;;;;;7.20;99.90;;;;;;5012041;28;19921;-80
2022/11/15 01:16:56;;;;;;;;;;;7.20;99.90;;;;;;5012727;28;19940;-80
2022/11/15 01:19:22;;;;;;;;;;;7.20;99.90;;;;;;4982853;28;20378;-80
2022/11/15 01:21:51;;;;;;;;;;;7.30;99.90;;;;;;5013889;28;19929;-80
2022/11/15 01:24:16;;;;;;;;;;;7.30;99.90;;;;;;5016420;28;19983;-80
2022/11/15 01:26:42;;;;;;;;;;;7.30;99.90;;;;;;5015006;28;19922;-80
2022/11/15 01:29:08;;;;;;;;;;;7.30;99.90;;;;;;5003459;28;19982;-80
2022/11/15 01:31:33;;;;;;;;;;;7.30;99.90;;;;;;4999699;28;19932;-80
2022/11/15 01:33:59;;;;;;;;;;;7.30;99.90;;;;;;5014767;28;19921;-80
2022/11/15 01:36:24;;;;;;;;;;;7.30;99.90;;;;;;5015288;28;20374;-80
2022/11/15 01:38:57;;;;;;;;;;;7.30;99.90;;;;;;5000608;28;19968;-80
2022/11/15 01:41:24;;;;;;;;;;;7.30;99.90;;;;;;5016685;28;20048;-80
2022/11/15 01:43:54;;;;;;;;;;;7.20;99.90;;;;;;5015297;28;19921;-79
2022/11/15 01:46:25;;;;;;;;;;;7.30;99.90;;;;;;4999220;28;19975;-80
2022/11/15 01:48:52;;;;;;;;;;;7.30;99.90;;;;;;5017764;28;19928;-80
2022/11/15 01:51:19;;;;;;;;;;;7.30;99.90;;;;;;4991777;28;19927;-80
2022/11/15 01:53:47;;;;;;;;;;;7.30;99.90;;;;;;5017433;28;20450;-80
2022/11/15 01:56:15;;;;;;;;;;;7.70;99.90;;;;;;5030837;28;20402;-79
2022/11/15 01:58:40;;;;;;;;;;;7.50;99.90;;;;;;5016288;28;19948;-80
2022/11/15 02:01:06;;;;;;;;;;;7.50;99.90;;;;;;5015924;28;19947;-80
2022/11/15 02:03:42;;;;;;;;;;;7.40;99.90;;;;;;5016068;28;20413;-80
2022/11/15 02:06:08;;;;;;;;;;;7.40;99.90;;;;;;4996510;28;20337;-80
2022/11/15 02:08:33;;;;;;;;;;;7.60;99.90;;;;;;4999854;28;19925;-80
2022/11/15 02:10:59;;;;;;;;;;;7.50;99.90;;;;;;5031644;28;19929;-80
2022/11/15 02:13:25;;;;;;;;;;;7.40;99.90;;;;;;4997790;28;19936;-80
2022/11/15 02:15:55;;;;;;;;;;;7.40;99.90;;;;;;5014784;28;20393;-81
2022/11/15 02:18:26;;;;;;;;;;;8.00;99.90;;;;;;5019512;28;19925;-80
2022/11/15 02:21:04;;;;;;;;;;;7.50;99.90;;;;;;5015245;28;19929;-80
2022/11/15 02:23:29;;;;;;;;;;;7.50;99.90;;;;;;5013269;28;19929;-80
2022/11/15 02:25:55;;;;;;;;;;;7.50;99.90;;;;;;5014182;28;19987;-80
2022/11/15 02:28:39;;;;;;;;;;;7.40;99.90;;;;;;4996645;28;20350;-80
2022/11/15 02:31:05;;;;;;;;;;;7.50;99.90;;;;;;5000125;28;19922;-80
2022/11/15 02:33:33;;;;;;;;;;;7.60;99.90;;;;;;4998652;28;19948;-80
2022/11/15 02:36:00;;;;;;;;;;;7.50;99.90;;;;;;4998539;28;20037;-80
2022/11/15 02:38:29;;;;;;;;;;;7.60;99.90;;;;;;5014487;28;19925;-80
2022/11/15 02:41:09;;;;;;;;;;;7.50;99.90;;;;;;5005804;28;19968;-80
2022/11/15 02:43:56;;;;;;;;;;;7.50;99.90;;;;;;4998825;28;20760;-80
2022/11/15 02:49:17;;;;;;;;;;;7.60;99.90;;;;;;5014712;28;19928;-80
2022/11/15 02:51:44;;;;;;;;;;;7.60;99.90;;;;;;4982378;28;19925;-80
2022/11/15 02:54:15;;;;;;;;;;;7.60;99.90;;;;;;5000775;28;19929;-78
2022/11/15 02:56:41;;;;;;;;;;;7.60;99.90;;;;;;5025741;28;19922;-79
2022/11/15 02:59:13;;;;;;;;;;;7.60;99.90;;;;;;5016512;28;20302;-80
2022/11/15 03:01:47;;;;;;;;;;;7.60;99.90;;;;;;5005496;28;20625;-80
2022/11/15 03:04:15;;;;;;;;;;;7.60;99.90;;;;;;4997677;28;19921;-80
2022/11/15 03:06:41;;;;;;;;;;;7.60;99.90;;;;;;4999572;28;19927;-80
2022/11/15 03:09:19;;;;;;;;;;;7.60;99.90;;;;;;5017736;28;19952;-80
2022/11/15 03:11:47;;;;;;;;;;;7.70;99.90;;;;;;5021253;28;19928;-79
2022/11/15 03:14:22;;;;;;;;;;;7.70;99.90;;;;;;5020583;28;19928;-80
2022/11/15 03:17:06;;;;;;;;;;;7.70;99.90;;;;;;5020618;28;19997;-80
2022/11/15 03:19:34;;;;;;;;;;;7.70;99.90;;;;;;5017916;28;19925;-80
2022/11/15 03:22:02;;;;;;;;;;;7.70;99.90;;;;;;5014426;28;20278;-80
2022/11/15 03:24:30;;;;;;;;;;;7.70;99.90;;;;;;5017637;28;19924;-80
2022/11/15 03:26:56;;;;;;;;;;;7.80;99.90;;;;;;4997482;28;20004;-79
2022/11/15 03:29:24;;;;;;;;;;;7.80;99.90;;;;;;5016784;28;20405;-80
2022/11/15 03:31:53;;;;;;;;;;;7.70;99.90;;;;;;5001236;28;19979;-80
2022/11/15 03:34:22;;;;;;;;;;;7.80;99.90;;;;;;5000436;28;19921;-79
2022/11/15 03:36:48;;;;;;;;;;;7.80;99.90;;;;;;5018412;28;19925;-80
2022/11/15 03:39:14;;;;;;;;;;;7.90;99.90;;;;;;5016814;28;19929;-79
2022/11/15 03:42:03;;;;;;;;;;;7.80;99.90;;;;;;5014145;28;20433;-80
2022/11/15 03:44:42;;;;;;;;;;;7.90;99.90;;;;;;5010753;28;19944;-80
2022/11/15 03:47:19;;;;;;;;;;;7.90;99.90;;;;;;5011219;28;20375;-80
2022/11/15 03:49:46;;;;;;;;;;;7.90;99.90;;;;;;5011287;28;19947;-80
2022/11/15 03:52:12;;;;;;;;;;;7.90;99.90;;;;;;4995318;28;19921;-80
2022/11/15 03:54:47;;;;;;;;;;;7.90;99.90;;;;;;5013015;28;19921;-81
2022/11/15 03:57:12;;;;;;;;;;;8.00;99.90;;;;;;5011626;28;20048;-80
2022/11/15 03:59:38;;;;;;;;;;;8.00;99.90;;;;;;5011775;28;20020;-80
2022/11/15 04:02:04;;;;;;;;;;;8.00;99.90;;;;;;4996364;28;20421;-80
2022/11/15 04:04:29;;;;;;;;;;;8.00;99.90;;;;;;4976344;28;19921;-79
2022/11/15 04:06:55;;;;;;;;;;;8.00;99.90;;;;;;5014100;28;20530;-80
2022/11/15 04:09:20;;;;;;;;;;;8.00;99.90;;;;;;4978732;28;19922;-80
2022/11/15 04:11:46;;;;;;;;;;;8.10;99.90;;;;;;5001784;28;19980;-80
2022/11/15 04:14:11;;;;;;;;;;;8.10;99.90;;;;;;5012873;28;19944;-80
2022/11/15 04:16:37;;;;;;;;;;;8.20;99.90;;;;;;5013467;28;19995;-80
2022/11/15 04:24:31;;;;;;;;;;;8.30;99.90;;;;;;4996763;28;19925;-80
2022/11/15 04:26:57;;;;;;;;;;;8.20;99.90;;;;;;5012111;28;19921;-79
2022/11/15 04:29:35;;;;;;;;;;;8.30;99.90;;;;;;5030385;28;19927;-80
2022/11/15 04:32:01;;;;;;;;;;;8.30;99.90;;;;;;5011225;28;19921;-80
2022/11/15 04:34:26;;;;;;;;;;;8.50;99.90;;;;;;5013136;28;19926;-79
2022/11/15 04:39:36;;;;;;;;;;;8.40;99.90;;;;;;5014593;28;20655;-81
2022/11/15 04:42:02;;;;;;;;;;;8.40;99.90;;;;;;4994952;28;19926;-81
2022/11/15 04:44:28;;;;;;;;;;;8.40;99.90;;;;;;5013714;28;20394;-80
2022/11/15 04:46:53;;;;;;;;;;;8.50;99.90;;;;;;5011704;28;19932;-79
2022/11/15 04:49:19;;;;;;;;;;;8.50;99.90;;;;;;4998027;28;19943;-79
2022/11/15 04:51:45;;;;;;;;;;;8.50;99.90;;;;;;4979148;28;19925;-81
2022/11/15 04:54:10;;;;;;;;;;;8.50;99.90;;;;;;5015476;28;20298;-80
2022/11/15 04:56:36;;;;;;;;;;;8.50;99.90;;;;;;5013699;28;20263;-80
2022/11/15 04:59:01;;;;;;;;;;;8.50;99.90;;;;;;5012619;28;19928;-80
2022/11/15 05:01:27;;;;;;;;;;;8.50;99.90;;;;;;4996150;28;19921;-80
2022/11/15 05:06:37;;;;;;;;;;;8.60;99.90;;;;;;5023671;28;20060;-80
2022/11/15 05:09:03;;;;;;;;;;;8.60;99.90;;;;;;5014877;28;19921;-80
2022/11/15 05:11:28;;;;;;;;;;;8.60;99.90;;;;;;5013467;28;19968;-80
2022/11/15 05:13:54;;;;;;;;;;;8.60;99.90;;;;;;5013556;28;20982;-80
2022/11/15 05:16:19;;;;;;;;;;;8.60;99.90;;;;;;4998502;28;19932;-80
2022/11/15 05:18:45;;;;;;;;;;;8.70;99.90;;;;;;5009589;28;19933;-80
2022/11/15 05:21:12;;;;;;;;;;;8.70;99.90;;;;;;5044291;28;20016;-80
2022/11/15 05:23:38;;;;;;;;;;;8.70;99.90;;;;;;5043666;28;19992;-80
2022/11/15 05:26:05;;;;;;;;;;;8.70;99.90;;;;;;5028231;28;20643;-80
2022/11/15 05:28:30;;;;;;;;;;;8.70;99.90;;;;;;5006388;28;19970;-80
2022/11/15 05:31:06;;;;;;;;;;;8.80;99.90;;;;;;5014235;28;19971;-80
2022/11/15 05:33:33;;;;;;;;;;;8.80;99.90;;;;;;5033742;28;19928;-80
2022/11/15 05:36:34;;;;;;;;;;;8.80;99.90;;;;;;5046626;28;20445;-80
2022/11/15 05:38:59;;;;;;;;;;;8.80;99.90;;;;;;4933312;28;19931;-80
2022/11/15 05:41:37;;;;;;;;;;;8.80;99.90;;;;;;4997836;28;20443;-80
2022/11/15 05:44:04;;;;;;;;;;;8.80;99.90;;;;;;5033175;28;19921;-80
2022/11/15 05:46:30;;;;;;;;;;;8.90;99.90;;;;;;5017921;28;19928;-80
2022/11/15 05:48:56;;;;;;;;;;;8.90;99.90;;;;;;5016880;28;19920;-80
2022/11/15 05:51:22;;;;;;;;;;;8.90;99.90;;;;;;5014674;28;19921;-80
2022/11/15 05:53:48;;;;;;;;;;;8.90;99.90;;;;;;5031187;28;20051;-80
2022/11/15 05:56:14;;;;;;;;;;;9.00;99.90;;;;;;5033130;28;19975;-81
2022/11/15 05:58:39;;;;;;;;;;;9.10;99.90;;;;;;4998211;28;19956;-81
2022/11/15 06:01:05;;;;;;;;;;;9.50;99.90;;;;;;5031097;28;20290;-80
2022/11/15 06:03:30;;;;;;;;;;;9.00;99.90;;;;;;5015537;28;19921;-80
2022/11/15 06:05:56;;;;;;;;;;;9.10;99.90;;;;;;5019428;28;19939;-80
2022/11/15 06:08:22;;;;;;;;;;;9.00;99.90;;;;;;5050998;28;19928;-80
2022/11/15 06:10:47;;;;;;;;;;;9.10;99.90;;;;;;5019347;28;19959;-81
2022/11/15 06:13:13;;;;;;;;;;;9.10;99.90;;;;;;5001574;28;19929;-80
2022/11/15 06:15:38;;;;;;;;;;;9.10;99.90;;;;;;5050157;28;20027;-79
2022/11/15 06:18:04;;;;;;;;;;;9.10;99.90;;;;;;5019067;28;20008;-80
2022/11/15 06:20:30;;;;;;;;;;;9.20;99.90;;;;;;5036430;28;20274;-80
2022/11/15 06:22:59;;;;;;;;;;;9.20;99.90;;;;;;5036690;28;19925;-80
2022/11/15 06:25:25;;;;;;;;;;;9.30;99.90;;;;;;5017637;28;19929;-80
2022/11/15 06:27:52;;;;;;;;;;;9.30;99.90;;;;;;5003019;28;20267;-80
2022/11/15 06:30:17;;;;;;;;;;;9.30;99.90;;;;;;5050714;28;19957;-80
2022/11/15 06:32:43;;;;;;;;;;;9.40;99.90;;;;;;5015483;28;20029;-80
2022/11/15 06:35:08;;;;;;;;;;;9.40;99.90;;;;;;5017393;28;19921;-81
2022/11/15 06:37:34;;;;;;;;;;;9.40;99.90;;;;;;5017124;28;20300;-80
2022/11/15 06:39:59;;;;;;;;;;;9.40;99.90;;;;;;5034463;28;19920;-80
2022/11/15 06:42:25;;;;;;;;;;;9.50;99.90;;;;;;5048201;28;20290;-80
2022/11/15 06:44:51;;;;;;;;;;;9.50;99.90;;;;;;5014391;28;19948;-80
2022/11/15 06:47:16;;;;;;;;;;;9.50;99.90;;;;;;5018630;28;19972;-80
2022/11/15 06:49:42;;;;;;;;;;;9.60;99.90;;;;;;5034257;28;19921;-80
2022/11/15 06:52:07;;;;;;;;;;;9.60;99.90;;;;;;5035833;28;19921;-80
2022/11/15 06:54:33;;;;;;;;;;;9.60;99.90;;;;;;5017667;28;19936;-80
2022/11/15 06:56:58;;;;;;;;;;;9.60;99.90;;;;;;5019986;28;19967;-80
2022/11/15 06:59:24;;;;;;;;;;;9.70;99.90;;;;;;5018731;28;19929;-79
2022/11/15 07:01:49;;;;;;;;;;;9.70;99.90;;;;;;5013954;28;19970;-80
2022/11/15 07:04:15;;;;;;;;;;;9.70;99.90;;;;;;5017906;28;19921;-80
2022/11/15 07:06:40;;;;;;;;;;;9.80;99.90;;;;;;5033049;28;20390;-80
2022/11/15 07:09:06;;;;;;;;;;;9.80;99.90;;;;;;5050533;28;19951;-80
2022/11/15 07:11:32;;;;;;;;;;;9.90;99.90;;;;;;5016139;28;19920;-80
2022/11/15 07:13:59;;;;;;;;;;;10.00;99.90;;;;;;5031289;28;19921;-80
2022/11/15 07:16:24;;;;;;;;;;;10.00;99.90;;;;;;4998968;28;19925;-79
2022/11/15 07:18:50;;;;;;;;;;;10.10;99.90;;;;;;5036896;28;19931;-82
2022/11/15 07:21:15;;;;;;;;;;;10.10;99.90;;;;;;4996154;28;19927;-79
2022/11/15 07:23:41;;;;;;;;;;;10.10;99.90;;;;;;5019357;28;19933;-79
2022/11/15 07:26:07;;;;;;;;;;;10.20;99.90;;;;;;5017388;28;19920;-79
2022/11/15 07:28:33;;;;;;;;;;;10.20;99.90;;;;;;5035678;28;19924;-79
2022/11/15 07:31:01;;;;;;;;;;;10.20;99.90;;;;;;5038108;28;20385;-79
2022/11/15 07:33:27;;;;;;;;;;;10.20;99.90;;;;;;5035711;28;19928;-79
2022/11/15 07:35:52;;;;;;;;;;;10.20;99.90;;;;;;5019578;28;19921;-79
2022/11/15 07:38:21;;;;;;;;;;;10.20;99.90;;;;;;5017729;28;19932;-79
2022/11/15 07:40:46;;;;;;;;;;;10.20;99.90;;;;;;5036488;28;20293;-79
2022/11/15 07:43:12;;;;;;;;;;;10.30;99.90;;;;;;5038204;28;19921;-79
2022/11/15 07:45:44;;;;;;;;;;;10.20;99.90;;;;;;5033099;28;20043;-80
2022/11/15 07:48:10;;;;;;;;;;;10.30;99.90;;;;;;5030501;28;20363;-80
2022/11/15 07:50:36;;;;;;;;;;;10.30;99.90;;;;;;5012606;28;19969;-80
2022/11/15 07:53:02;;;;;;;;;;;10.30;99.90;;;;;;5029287;28;19921;-80
2022/11/15 07:55:29;;;;;;;;;;;10.30;99.90;;;;;;5019015;28;20337;-80
2022/11/15 07:58:00;;;;;;;;;;;10.30;99.90;;;;;;5034841;28;19921;-79
2022/11/15 08:00:25;;;;;;;;;;;10.40;99.90;;;;;;5020012;28;19931;-79
2022/11/15 08:02:51;;;;;;;;;;;10.50;99.90;;;;;;5020905;28;19921;-80
2022/11/15 08:05:16;;;;;;;;;;;10.50;99.90;;;;;;5018711;28;19921;-79
2022/11/15 08:07:42;;;;;;;;;;;10.50;99.90;;;;;;5035323;28;20354;-80
2022/11/15 08:10:07;;;;;;;;;;;10.50;99.90;;;;;;5032269;28;19921;-79
2022/11/15 08:12:33;;;;;;;;;;;10.60;99.90;;;;;;5019654;28;19948;-80
2022/11/15 08:14:59;;;;;;;;;;;10.60;99.90;;;;;;5020508;28;20020;-80
2022/11/15 08:17:25;;;;;;;;;;;10.70;99.90;;;;;;5034213;28;20018;-79
2022/11/15 08:19:51;;;;;;;;;;;10.70;99.90;;;;;;5012274;28;20400;-79
2022/11/15 08:22:16;;;;;;;;;;;10.70;99.90;;;;;;5049728;28;19921;-79
2022/11/15 08:24:43;;;;;;;;;;;10.70;99.90;;;;;;5034760;28;19927;-78
2022/11/15 08:27:14;;;;;;;;;;;10.70;99.90;;;;;;5037764;28;19921;-79
2022/11/15 08:29:41;;;;;;;;;;;10.80;99.90;;;;;;5025053;28;19927;-79
2022/11/15 08:32:07;;;;;;;;;;;10.80;99.90;;;;;;5039145;28;19929;-79
2022/11/15 08:34:32;;;;;;;;;;;10.90;99.90;;;;;;5020828;28;19975;-79
2022/11/15 08:36:58;;;;;;;;;;;10.90;99.90;;;;;;5000768;28;19924;-79
2022/11/15 08:39:23;;;;;;;;;;;10.90;99.90;;;;;;5030866;28;20019;-79
2022/11/15 08:41:49;;;;;;;;;;;10.90;99.90;;;;;;5019613;28;20436;-79
2022/11/15 08:44:15;;;;;;;;;;;10.90;99.90;;;;;;5018933;28;19921;-78
2022/11/15 08:46:40;;;;;;;;;;;10.90;99.90;;;;;;5017924;28;19920;-79
2022/11/15 08:49:06;;;;;;;;;;;10.90;99.90;;;;;;5020263;28;19920;-80
2022/11/15 08:51:31;;;;;;;;;;;10.90;99.90;;;;;;5029524;28;20383;-79
2022/11/15 08:53:57;;;;;;;;;;;10.90;99.90;;;;;;5018084;28;19951;-80
2022/11/15 08:56:23;;;;;;;;;;;10.90;99.90;;;;;;5036900;28;20020;-79
2022/11/15 08:58:48;;;;;;;;;;;10.90;99.90;;;;;;5033997;28;19940;-78
2022/11/15 09:01:15;;;;;;;;;;;10.90;99.90;;;;;;5019808;28;19925;-79
2022/11/15 09:03:41;;;;;;;;;;;10.90;99.90;;;;;;5018103;28;19921;-79
2022/11/15 09:06:06;;;;;;;;;;;10.90;99.90;;;;;;5003104;28;19967;-79
2022/11/15 09:08:32;;;;;;;;;;;10.90;99.90;;;;;;5003657;28;20393;-79
2022/11/15 09:10:57;;;;;;;;;;;10.90;99.90;;;;;;5020969;28;19973;-79
2022/11/15 09:13:23;;;;;;;;;;;10.90;99.90;;;;;;5019524;28;19921;-79
2022/11/15 09:15:48;;;;;;;;;;;10.90;99.90;;;;;;5035417;28;19920;-79
2022/11/15 09:18:14;;;;;;;;;;;11.00;99.90;;;;;;5019290;28;19935;-80
2022/11/15 09:20:40;;;;;;;;;;;11.00;99.90;;;;;;5038858;28;20424;-79
2022/11/15 09:23:05;;;;;;;;;;;11.00;99.90;;;;;;5020183;28;19921;-79
2022/11/15 09:25:31;;;;;;;;;;;11.10;99.90;;;;;;5017785;28;19948;-79
2022/11/15 09:27:57;;;;;;;;;;;11.10;99.90;;;;;;5035489;28;19921;-79
2022/11/15 09:30:24;;;;;;;;;;;11.10;99.90;;;;;;5035883;28;20382;-79
2022/11/15 09:32:49;;;;;;;;;;;11.10;99.90;;;;;;5017648;28;19947;-79
2022/11/15 09:35:15;;;;;;;;;;;11.20;99.90;;;;;;5035549;28;20409;-79
2022/11/15 09:37:41;;;;;;;;;;;11.20;99.90;;;;;;5019922;28;20008;-79
2022/11/15 09:40:09;;;;;;;;;;;11.20;99.90;;;;;;5040618;28;20241;-79
2022/11/15 09:42:53;;;;;;;;;;;11.20;99.90;;;;;;5040176;28;19931;-79
2022/11/15 09:45:19;;;;;;;;;;;11.20;99.90;;;;;;5022469;28;20546;-79
2022/11/15 09:48:10;;;;;;;;;;;11.20;99.90;;;;;;5042207;28;19936;-79
2022/11/15 09:50:39;;;;;;;;;;;11.20;99.90;;;;;;5015434;28;19921;-79
2022/11/15 09:53:08;;;;;;;;;;;11.20;99.90;;;;;;5038407;28;19920;-79
2022/11/15 09:56:00;;;;;;;;;;;11.10;99.90;;;;;;5023454;28;19928;-79
2022/11/15 09:58:35;;;;;;;;;;;11.20;99.90;;;;;;5034938;28;19925;-78
2022/11/15 10:01:04;;;;;;;;;;;11.20;99.90;;;;;;5022308;28;20397;-78
2022/11/15 10:03:33;;;;;;;;;;;11.20;99.90;;;;;;5025223;28;20389;-79
2022/11/15 10:06:01;;;;;;;;;;;11.20;99.90;;;;;;5024286;28;19929;-78
2022/11/15 10:08:34;;;;;;;;;;;11.10;99.90;;;;;;5038313;28;20413;-78
2022/11/15 10:11:10;;;;;;;;;;;11.10;99.90;;;;;;5039217;28;20340;-78
2022/11/15 10:13:39;;;;;;;;;;;11.10;99.90;;;;;;5039547;28;19928;-78
2022/11/15 10:16:05;;;;;;;;;;;11.20;99.90;;;;;;5039830;28;19925;-79
2022/11/15 10:18:49;;;;;;;;;;;11.10;99.90;;;;;;5023446;28;19988;-78
2022/11/15 10:21:14;;;;;;;;;;;11.10;99.90;;;;;;5038460;28;19948;-79
2022/11/15 10:23:40;;;;;;;;;;;11.20;99.90;;;;;;5021498;28;19921;-79
2022/11/15 10:26:08;;;;;;;;;;;11.20;99.90;;;;;;5039939;28;19931;-78
2022/11/15 10:28:34;;;;;;;;;;;11.20;99.90;;;;;;5023183;28;19947;-78
2022/11/15 10:31:04;;;;;;;;;;;11.30;99.90;;;;;;5023985;28;19921;-79
2022/11/15 10:33:36;;;;;;;;;;;11.30;99.90;;;;;;5005117;28;19924;-79
2022/11/15 10:36:13;;;;;;;;;;;11.30;99.90;;;;;;5037712;28;19920;-79
2022/11/15 10:39:05;;;;;;;;;;;11.40;99.90;;;;;;5019760;28;19925;-79
2022/11/15 10:41:34;;;;;;;;;;;11.40;99.90;;;;;;5016150;28;19928;-78
2022/11/15 10:44:21;;;;;;;;;;;11.40;99.90;;;;;;5038250;28;19921;-78
2022/11/15 10:46:56;;;;;;;;;;;11.40;99.90;;;;;;5020610;28;19951;-79
2022/11/15 10:49:21;;;;;;;;;;;11.40;99.90;;;;;;5036810;28;19921;-78
2022/11/15 10:52:07;;;;;;;;;;;11.40;99.90;;;;;;5038063;28;20562;-79
2022/11/15 10:54:37;;;;;;;;;;;11.40;99.90;;;;;;5009560;28;20007;-79
2022/11/15 10:57:12;;;;;;;;;;;11.40;99.90;;;;;;5016343;28;20352;-79
2022/11/15 10:59:38;;;;;;;;;;;11.50;99.90;;;;;;5038188;28;19929;-78
2022/11/15 11:02:23;;;;;;;;;;;11.60;99.90;;;;;;5037523;28;19921;-78
2022/11/15 11:04:50;;;;;;;;;;;11.60;99.90;;;;;;5038986;28;19921;-78
2022/11/15 11:07:24;;;;;;;;;;;11.70;99.90;;;;;;5038143;28;19924;-79
2022/11/15 11:09:57;;;;;;;;;;;11.60;99.90;;;;;;5052611;28;19928;-79
2022/11/15 11:12:28;;;;;;;;;;;11.70;99.90;;;;;;5020267;28;19936;-79
2022/11/15 11:14:53;;;;;;;;;;;11.90;99.90;;;;;;5045648;28;19966;-78
2022/11/15 11:17:39;;;;;;;;;;;12.10;99.90;;;;;;5002430;28;20039;-79
2022/11/15 11:20:40;;;;;;;;;;;12.20;99.90;;;;;;5020035;28;19930;-79
2022/11/15 11:23:06;;;;;;;;;;;12.30;99.90;;;;;;4950926;28;19930;-79
2022/11/15 11:25:31;;;;;;;;;;;12.30;99.90;;;;;;5017334;28;19921;-79
2022/11/15 11:28:17;;;;;;;;;;;12.20;99.90;;;;;;5029198;28;19929;-79
2022/11/15 11:30:46;;;;;;;;;;;12.20;99.90;;;;;;5005406;28;19964;-79
2022/11/15 11:33:16;;;;;;;;;;;12.20;99.90;;;;;;5017076;28;19921;-79
2022/11/15 11:35:41;;;;;;;;;;;12.20;99.90;;;;;;5037568;28;19971;-79
2022/11/15 11:38:22;;;;;;;;;;;12.30;99.90;;;;;;5033826;28;19995;-80
2022/11/15 11:40:47;;;;;;;;;;;12.40;99.90;;;;;;5017352;28;19977;-79
2022/11/15 11:43:19;;;;;;;;;;;12.50;99.90;;;;;;5016781;28;19929;-79
2022/11/15 11:45:54;;;;;;;;;;;12.50;99.90;;;;;;5030034;28;19921;-80
2022/11/15 11:48:31;;;;;;;;;;;12.50;99.90;;;;;;5001640;28;19921;-78
2022/11/15 11:51:12;;;;;;;;;;;12.40;99.90;;;;;;5018339;28;19947;-79
2022/11/15 11:53:40;;;;;;;;;;;12.30;99.90;;;;;;5020980;28;19921;-80
2022/11/15 11:56:20;;;;;;;;;;;12.40;99.90;;;;;;5004571;28;19928;-79
2022/11/15 11:58:46;;;;;;;;;;;12.40;99.90;;;;;;5039139;28;20061;-80
2022/11/15 12:01:31;;;;;;;;;;;12.50;99.90;;;;;;5003855;28;19921;-80
2022/11/15 12:04:04;;;;;;;;;;;12.50;99.90;;;;;;5003903;28;19929;-79
2022/11/15 12:06:41;;;;;;;;;;;12.50;99.90;;;;;;5005184;28;20412;-79
2022/11/15 12:09:16;;;;;;;;;;;12.50;99.90;;;;;;5003487;28;20428;-80
2022/11/15 12:11:45;;;;;;;;;;;12.50;99.90;;;;;;5002958;28;20577;-80
2022/11/15 12:14:30;;;;;;;;;;;12.50;99.90;;;;;;5018826;28;19925;-79
2022/11/15 12:16:56;;;;;;;;;;;12.50;99.90;;;;;;5036493;28;19933;-79
2022/11/15 12:19:22;;;;;;;;;;;12.40;99.90;;;;;;5017000;28;19929;-79
2022/11/15 12:21:54;;;;;;;;;;;12.50;99.90;;;;;;4986706;28;19921;-79
2022/11/15 12:24:39;;;;;;;;;;;12.60;99.90;;;;;;5022275;28;19929;-79
2022/11/15 12:27:17;;;;;;;;;;;12.60;99.90;;;;;;5021731;28;20641;-78
2022/11/15 12:29:48;;;;;;;;;;;12.60;99.90;;;;;;5046378;28;19929;-79
2022/11/15 12:32:17;;;;;;;;;;;12.70;99.90;;;;;;5005129;28;20183;-79
2022/11/15 12:34:47;;;;;;;;;;;12.60;99.90;;;;;;5000485;28;20229;-79
2022/11/15 12:37:52;;;;;;;;;;;12.60;99.90;;;;;;5038115;28;20011;-79
2022/11/15 12:40:18;;;;;;;;;;;12.60;99.90;;;;;;4933149;28;19926;-79
2022/11/15 12:43:02;;;;;;;;;;;12.70;99.90;;;;;;4945433;28;19937;-79
2022/11/15 12:45:32;;;;;;;;;;;12.90;99.90;;;;;;4995066;28;19925;-79
2022/11/15 12:48:16;;;;;;;;;;;13.00;99.90;;;;;;5036234;28;19931;-78
2022/11/15 12:50:54;;;;;;;;;;;13.00;99.90;;;;;;5019106;28;19921;-79
2022/11/15 12:53:22;;;;;;;;;;;13.20;99.90;;;;;;5002726;28;19921;-79
2022/11/15 12:56:07;;;;;;;;;;;13.30;99.90;;;;;;5018375;28;19957;-79
2022/11/15 12:58:38;;;;;;;;;;;13.40;99.90;;;;;;5035844;28;19925;-79
2022/11/15 13:01:06;;;;;;;;;;;13.30;99.90;;;;;;5000176;28;19931;-79
2022/11/15 13:03:32;;;;;;;;;;;13.30;99.90;;;;;;5019473;28;19969;-79
2022/11/15 13:05:58;;;;;;;;;;;13.20;99.90;;;;;;5004939;28;20013;-79
2022/11/15 13:08:41;;;;;;;;;;;13.20;99.90;;;;;;5004021;28;19943;-79
2022/11/15 13:11:25;;;;;;;;;;;13.20;99.90;;;;;;5039506;28;19921;-79
2022/11/15 13:13:50;;;;;;;;;;;13.20;99.90;;;;;;5041957;28;19983;-79
2022/11/15 13:16:20;;;;;;;;;;;13.20;99.90;;;;;;5037436;28;19971;-79
2022/11/15 13:18:53;;;;;;;;;;;13.20;99.90;;;;;;5020915;28;19932;-80
2022/11/15 13:24:05;;;;;;;;;;;13.20;99.90;;;;;;5036415;28;19925;-80
2022/11/15 13:26:30;;;;;;;;;;;13.00;99.90;;;;;;5039800;28;19929;-79
2022/11/15 13:28:56;;;;;;;;;;;13.00;99.90;;;;;;5021943;28;19929;-79
2022/11/15 13:31:31;;;;;;;;;;;12.90;99.90;;;;;;5038621;28;19935;-79
2022/11/15 13:34:02;;;;;;;;;;;12.90;99.90;;;;;;5037456;28;19921;-79
2022/11/15 13:36:33;;;;;;;;;;;12.90;99.90;;;;;;5033321;28;19979;-79
2022/11/15 13:39:04;;;;;;;;;;;12.90;99.90;;;;;;5026523;28;19940;-78
2022/11/15 13:41:31;;;;;;;;;;;12.80;99.90;;;;;;5007232;28;20628;-80
2022/11/15 13:43:58;;;;;;;;;;;12.70;99.90;;;;;;5042622;28;20279;-81
2022/11/15 13:46:33;;;;;;;;;;;12.60;99.90;;;;;;5024253;28;19929;-81
2022/11/15 13:49:03;;;;;;;;;;;12.60;99.90;;;;;;5028272;28;19974;-82
2022/11/15 13:51:35;;;;;;;;;;;12.50;99.90;;;;;;5028868;28;20113;-80
2022/11/15 13:54:03;;;;;;;;;;;12.50;99.90;;;;;;5032727;28;19935;-83
2022/11/15 13:56:31;;;;;;;;;;;12.50;99.90;;;;;;5049882;28;19929;-82
2022/11/15 13:58:57;;;;;;;;;;;12.50;99.90;;;;;;5012759;28;19928;-82
2022/11/15 14:01:23;;;;;;;;;;;12.50;99.90;;;;;;5046034;28;20466;-82
2022/11/15 14:03:59;;;;;;;;;;;12.50;99.90;;;;;;5029434;28;19928;-82
2022/11/15 14:06:27;;;;;;;;;;;12.50;99.90;;;;;;5010991;28;20003;-82
2022/11/15 14:09:11;;;;;;;;;;;12.50;99.90;;;;;;5028854;28;19936;-82
2022/11/15 14:11:37;;;;;;;;;;;12.40;99.90;;;;;;5040862;28;19921;-82
2022/11/15 14:14:08;;;;;;;;;;;12.40;99.90;;;;;;5025808;28;19921;-82
2022/11/15 14:16:36;;;;;;;;;;;12.40;99.90;;;;;;5029385;28;20416;-82
2022/11/15 14:19:02;;;;;;;;;;;12.30;99.90;;;;;;5012710;28;19929;-82
2022/11/15 14:21:28;;;;;;;;;;;12.30;99.90;;;;;;5025316;28;20285;-83
2022/11/15 14:24:13;;;;;;;;;;;12.30;99.90;;;;;;5029390;28;19921;-84
2022/11/15 14:26:39;;;;;;;;;;;12.20;99.90;;;;;;5012405;28;19932;-84
2022/11/15 14:29:24;;;;;;;;;;;11.90;99.90;;;;;;5012163;28;19924;-82
2022/11/15 14:31:50;;;;;;;;;;;12.10;99.90;;;;;;5027178;28;19928;-83
2022/11/15 14:34:15;;;;;;;;;;;12.10;99.90;;;;;;4995151;28;19929;-80
2022/11/15 14:36:41;;;;;;;;;;;12.10;99.90;;;;;;5022773;28;19928;-81
2022/11/15 14:39:07;;;;;;;;;;;12.00;99.90;;;;;;5005365;28;19978;-80
2022/11/15 14:41:37;;;;;;;;;;;11.90;99.90;;;;;;4987872;28;19947;-80
2022/11/15 14:44:03;;;;;;;;;;;11.90;99.90;;;;;;5024738;28;20041;-80
2022/11/15 14:46:29;;;;;;;;;;;11.80;99.90;;;;;;5004490;28;20606;-79
2022/11/15 14:48:54;;;;;;;;;;;11.80;99.90;;;;;;5004579;28;19929;-80
2022/11/15 14:51:20;;;;;;;;;;;11.70;99.90;;;;;;5005763;28;19956;-80